createdAt,value
2023-09-16T00:00:14.874Z,98787.59
2023-09-16T00:02:41.674Z,98788.28
2023-09-16T00:05:08.481Z,98783.66
2023-09-16T00:07:35.212Z,98784.94
2023-09-16T00:10:01.999Z,98786.25
2023-09-16T00:12:28.826Z,98778.47
2023-09-16T00:14:55.643Z,98781.63
2023-09-16T00:17:23.154Z,98776.81
2023-09-16T00:19:49.906Z,98779.50
2023-09-16T00:22:17.164Z,98777.66
2023-09-16T00:24:43.950Z,98785.56
2023-09-16T00:27:10.743Z,98782.09
2023-09-16T00:29:37.485Z,98783.59
2023-09-16T00:32:07.503Z,98785.84
2023-09-16T00:34:34.282Z,98777.19
2023-09-16T00:37:01.016Z,98784.84
2023-09-16T00:39:27.824Z,98777.38
2023-09-16T00:41:54.948Z,98781.50
2023-09-16T00:44:21.735Z,98771.06
2023-09-16T00:46:50.214Z,98775.00
2023-09-16T00:49:17.187Z,98776.97
2023-09-16T00:51:46.234Z,98776.25
2023-09-16T00:54:13.816Z,98781.78
2023-09-16T00:56:41.042Z,98786.16
2023-09-16T00:59:08.005Z,98781.91
2023-09-16T01:01:38.667Z,98781.63
2023-09-16T01:04:06.620Z,98784.16
2023-09-16T01:06:33.831Z,98787.00
2023-09-16T01:09:00.673Z,98787.41
2023-09-16T01:11:27.662Z,98789.81
2023-09-16T01:13:54.619Z,98787.84
2023-09-16T01:16:38.154Z,98776.84
2023-09-16T01:19:42.224Z,98778.41
2023-09-16T01:22:10.548Z,98784.44
2023-09-16T01:24:37.359Z,98783.63
2023-09-16T01:27:04.280Z,98783.72
2023-09-16T01:29:31.139Z,98778.38
2023-09-16T01:32:07.020Z,98780.81
2023-09-16T01:34:41.226Z,98776.13
2023-09-16T01:37:20.038Z,98775.97
2023-09-16T01:39:53.234Z,98778.16
2023-09-16T01:42:21.556Z,98775.31
2023-09-16T01:44:48.725Z,98776.44
2023-09-16T01:47:15.627Z,98776.13
2023-09-16T01:49:42.476Z,98770.91
2023-09-16T01:52:09.581Z,98769.78
2023-09-16T01:54:36.535Z,98769.53
2023-09-16T01:57:03.466Z,98769.66
2023-09-16T01:59:30.227Z,98775.31
2023-09-16T02:01:57.110Z,98776.16
2023-09-16T02:04:23.919Z,98780.91
2023-09-16T02:06:51.896Z,98781.63
2023-09-16T02:09:18.711Z,98785.97
2023-09-16T02:11:45.593Z,98787.66
2023-09-16T02:14:15.703Z,98788.59
2023-09-16T02:16:45.481Z,98782.69
2023-09-16T02:19:13.716Z,98780.66
2023-09-16T02:21:40.571Z,98791.66
2023-09-16T02:24:07.445Z,98792.56
2023-09-16T02:26:34.258Z,98797.66
2023-09-16T02:29:01.148Z,98794.94
2023-09-16T02:31:28.117Z,98798.47
2023-09-16T02:33:59.138Z,98797.84
2023-09-16T02:36:27.843Z,98791.59
2023-09-16T02:38:54.621Z,98789.81
2023-09-16T02:41:21.962Z,98786.25
2023-09-16T02:43:49.996Z,98781.06
2023-09-16T02:46:17.839Z,98791.84
2023-09-16T02:48:45.166Z,98789.72
2023-09-16T02:51:12.618Z,98790.47
2023-09-16T02:53:39.640Z,98782.28
2023-09-16T02:56:09.728Z,98782.88
2023-09-16T02:58:37.034Z,98774.69
2023-09-16T03:01:11.630Z,98779.06
2023-09-16T03:03:41.792Z,98786.97
2023-09-16T03:06:08.864Z,98784.72
2023-09-16T03:08:35.710Z,98786.41
2023-09-16T03:11:03.803Z,98789.63
2023-09-16T03:13:32.247Z,98791.84
2023-09-16T03:16:20.353Z,98790.94
2023-09-16T03:18:51.484Z,98784.63
2023-09-16T03:21:20.048Z,98779.59
2023-09-16T03:23:47.604Z,98791.69
2023-09-16T03:26:17.325Z,98793.69
2023-09-16T03:28:48.437Z,98790.00
2023-09-16T03:31:19.129Z,98786.09
2023-09-16T03:33:45.953Z,98784.59
2023-09-16T03:36:14.305Z,98787.97
2023-09-16T03:38:52.233Z,98796.00
2023-09-16T03:41:19.474Z,98790.66
2023-09-16T03:43:53.636Z,98796.88
2023-09-16T03:46:25.222Z,98790.16
2023-09-16T03:48:53.365Z,98788.63
2023-09-16T03:51:22.425Z,98786.22
2023-09-16T03:53:51.962Z,98786.31
2023-09-16T03:56:19.181Z,98784.97
2023-09-16T03:58:46.295Z,98783.41
2023-09-16T04:01:13.233Z,98780.94
2023-09-16T04:03:40.053Z,98780.16
2023-09-16T04:06:07.826Z,98783.94
2023-09-16T04:08:41.903Z,98783.25
2023-09-16T04:11:09.654Z,98797.38
2023-09-16T04:13:37.918Z,98789.41
2023-09-16T04:16:04.857Z,98790.16
2023-09-16T04:18:32.415Z,98783.09
2023-09-16T04:20:59.056Z,98780.75
2023-09-16T04:23:26.399Z,98783.03
2023-09-16T04:25:58.598Z,98796.94
2023-09-16T04:28:26.157Z,98795.72
2023-09-16T04:30:54.229Z,98795.00
2023-09-16T04:33:22.765Z,98792.59
2023-09-16T04:35:50.990Z,98795.66
2023-09-16T04:38:24.051Z,98800.97
2023-09-16T04:40:54.347Z,98797.91
2023-09-16T04:43:21.602Z,98797.78
2023-09-16T04:45:50.851Z,98792.59
2023-09-16T04:48:28.822Z,98797.13
2023-09-16T04:50:55.978Z,98801.00
2023-09-16T04:53:23.383Z,98800.88
2023-09-16T04:55:59.102Z,98797.72
2023-09-16T04:58:27.852Z,98794.16
2023-09-16T05:00:55.257Z,98807.44
2023-09-16T05:03:22.137Z,98804.53
2023-09-16T05:05:48.965Z,98812.56
2023-09-16T05:08:15.760Z,98797.34
2023-09-16T05:10:43.384Z,98798.84
2023-09-16T05:13:10.613Z,98804.41
2023-09-16T05:15:37.434Z,98798.63
2023-09-16T05:18:06.066Z,98803.88
2023-09-16T05:20:34.159Z,98792.88
2023-09-16T05:23:02.745Z,98797.34
2023-09-16T05:25:29.549Z,98803.53
2023-09-16T05:27:56.382Z,98813.13
2023-09-16T05:30:23.099Z,98810.13
2023-09-16T05:32:50.466Z,98806.53
2023-09-16T05:35:17.452Z,98804.31
2023-09-16T05:37:44.948Z,98806.13
2023-09-16T05:40:12.903Z,98797.69
2023-09-16T05:42:39.551Z,98799.50
2023-09-16T05:45:07.643Z,98803.06
2023-09-16T05:47:34.543Z,98797.84
2023-09-16T05:50:01.448Z,98793.34
2023-09-16T05:52:29.131Z,98795.75
2023-09-16T05:54:58.209Z,98798.53
2023-09-16T05:57:26.057Z,98798.00
2023-09-16T05:59:52.902Z,98806.13
2023-09-16T06:02:20.271Z,98806.72
2023-09-16T06:04:47.086Z,98803.88
2023-09-16T06:07:13.906Z,98814.31
2023-09-16T06:09:40.708Z,98811.09
2023-09-16T06:12:07.875Z,98805.13
2023-09-16T06:14:34.658Z,98807.44
2023-09-16T06:17:01.922Z,98810.72
2023-09-16T06:19:29.476Z,98814.88
2023-09-16T06:21:56.872Z,98811.16
2023-09-16T06:24:25.037Z,98801.53
2023-09-16T06:26:51.876Z,98818.16
2023-09-16T06:29:18.670Z,98812.03
2023-09-16T06:31:45.451Z,98813.63
2023-09-16T06:34:12.267Z,98811.22
2023-09-16T06:36:42.169Z,98816.56
2023-09-16T06:39:11.144Z,98812.19
2023-09-16T06:41:38.089Z,98810.59
2023-09-16T06:44:13.632Z,98802.22
2023-09-16T06:46:42.050Z,98810.66
2023-09-16T06:49:09.024Z,98807.78
2023-09-16T06:51:35.891Z,98805.84
2023-09-16T06:54:03.074Z,98805.63
2023-09-16T06:56:33.651Z,98810.59
2023-09-16T06:59:02.436Z,98810.19
2023-09-16T07:01:29.253Z,98810.16
2023-09-16T07:03:56.523Z,98814.03
2023-09-16T07:06:23.699Z,98812.28
2023-09-16T07:08:51.709Z,98806.59
2023-09-16T07:11:19.049Z,98811.22
2023-09-16T07:13:45.914Z,98812.25
2023-09-16T07:16:14.152Z,98806.94
2023-09-16T07:18:41.321Z,98813.50
2023-09-16T07:21:08.141Z,98820.59
2023-09-16T07:23:35.108Z,98824.63
2023-09-16T07:26:02.167Z,98817.03
2023-09-16T07:28:29.322Z,98820.50
2023-09-16T07:30:59.136Z,98819.84
2023-09-16T07:33:26.406Z,98815.59
2023-09-16T07:35:54.136Z,98830.63
2023-09-16T07:38:20.992Z,98820.97
2023-09-16T07:40:47.741Z,98820.63
2023-09-16T07:43:18.157Z,98826.38
2023-09-16T07:45:45.528Z,98823.72
2023-09-16T07:48:12.370Z,98825.78
2023-09-16T07:50:40.666Z,98812.13
2023-09-16T07:53:08.306Z,98814.38
2023-09-16T07:55:35.626Z,98816.97
2023-09-16T07:58:02.413Z,98825.00
2023-09-16T08:00:29.955Z,98815.75
2023-09-16T08:02:57.206Z,98815.16
2023-09-16T08:05:24.199Z,98811.09
2023-09-16T08:07:51.121Z,98803.09
2023-09-16T08:10:18.127Z,98812.28
2023-09-16T08:12:45.060Z,98811.59
2023-09-16T08:15:11.668Z,98815.72
2023-09-16T08:17:39.254Z,98819.06
2023-09-16T08:20:07.827Z,98816.47
2023-09-16T08:22:34.612Z,98808.06
2023-09-16T08:25:04.208Z,98817.50
2023-09-16T08:27:31.721Z,98819.00
2023-09-16T08:29:58.406Z,98821.91
2023-09-16T08:32:29.752Z,98817.97
2023-09-16T08:34:57.445Z,98813.84
2023-09-16T08:37:24.750Z,98815.53
2023-09-16T08:39:51.636Z,98817.00
2023-09-16T08:42:39.888Z,98816.94
2023-09-16T08:45:08.484Z,98813.59
2023-09-16T08:47:40.864Z,98813.00
2023-09-16T08:50:10.227Z,98818.31
2023-09-16T08:52:47.684Z,98816.31
2023-09-16T08:55:15.471Z,98815.41
2023-09-16T08:58:00.945Z,98818.53
2023-09-16T09:00:27.873Z,98811.03
2023-09-16T09:02:55.152Z,98817.81
2023-09-16T09:05:24.960Z,98816.47
2023-09-16T09:07:51.807Z,98815.91
2023-09-16T09:10:18.679Z,98816.06
2023-09-16T09:12:46.192Z,98811.19
2023-09-16T09:15:15.270Z,98812.22
2023-09-16T09:17:43.989Z,98812.59
2023-09-16T09:20:23.186Z,98810.72
2023-09-16T09:22:52.048Z,98811.22
2023-09-16T09:25:26.431Z,98811.75
2023-09-16T09:27:55.702Z,98805.66
2023-09-16T09:30:28.419Z,98806.91
2023-09-16T09:32:58.778Z,98803.28
2023-09-16T09:35:27.750Z,98802.19
2023-09-16T09:37:54.866Z,98802.94
2023-09-16T09:40:22.847Z,98793.06
2023-09-16T09:42:51.587Z,98810.59
2023-09-16T09:45:20.731Z,98804.03
2023-09-16T09:47:49.947Z,98798.03
2023-09-16T09:50:18.740Z,98798.59
2023-09-16T09:52:48.222Z,98796.94
2023-09-16T09:55:19.130Z,98794.06
2023-09-16T09:57:47.853Z,98797.63
2023-09-16T10:00:16.258Z,98793.47
2023-09-16T10:02:44.112Z,98785.56
2023-09-16T10:05:15.372Z,98793.47
2023-09-16T10:07:43.793Z,98784.81
2023-09-16T10:10:13.166Z,98778.69
2023-09-16T10:12:40.408Z,98770.22
2023-09-16T10:15:09.870Z,98771.22
2023-09-16T10:17:36.611Z,98762.13
2023-09-16T10:20:03.485Z,98763.47
2023-09-16T10:22:30.802Z,98766.00
2023-09-16T10:24:57.475Z,98761.09
2023-09-16T10:27:25.795Z,98760.06
2023-09-16T10:29:52.838Z,98751.44
2023-09-16T10:32:20.585Z,98764.84
2023-09-16T10:34:48.471Z,98754.63
2023-09-16T10:37:20.191Z,98753.75
2023-09-16T10:39:47.866Z,98751.59
2023-09-16T10:42:18.494Z,98746.94
2023-09-16T10:44:46.212Z,98743.16
2023-09-16T10:47:13.881Z,98745.50
2023-09-16T10:49:40.516Z,98735.84
2023-09-16T10:52:11.193Z,98739.88
2023-09-16T10:54:59.261Z,98730.50
2023-09-16T10:57:37.778Z,98727.09
2023-09-16T11:00:05.213Z,98738.25
2023-09-16T11:02:42.945Z,98734.22
2023-09-16T11:05:09.797Z,98739.03
2023-09-16T11:07:37.261Z,98740.00
2023-09-16T11:10:05.320Z,98737.88
2023-09-16T11:12:33.052Z,98739.91
2023-09-16T11:15:07.126Z,98731.78
2023-09-16T11:17:33.894Z,98736.19
2023-09-16T11:20:12.121Z,98733.91
2023-09-16T11:22:41.127Z,98731.19
2023-09-16T11:25:12.353Z,98716.66
2023-09-16T11:27:39.168Z,98723.84
2023-09-16T11:30:17.240Z,98726.53
2023-09-16T11:33:06.810Z,98727.16
2023-09-16T11:35:33.661Z,98724.38
2023-09-16T11:38:01.006Z,98722.31
2023-09-16T11:40:33.877Z,98714.63
2023-09-16T11:43:01.258Z,98718.91
2023-09-16T11:45:30.104Z,98720.34
2023-09-16T11:47:57.315Z,98714.16
2023-09-16T11:50:25.582Z,98700.94
2023-09-16T11:52:52.736Z,98708.94
2023-09-16T11:55:20.580Z,98709.53
2023-09-16T11:57:49.672Z,98701.28
2023-09-16T12:00:17.365Z,98706.97
2023-09-16T12:02:45.190Z,98699.69
2023-09-16T12:05:12.776Z,98695.66
2023-09-16T12:07:39.963Z,98691.75
2023-09-16T12:10:07.975Z,98689.59
2023-09-16T12:12:34.813Z,98682.66
2023-09-16T12:15:03.401Z,98682.22
2023-09-16T12:17:30.787Z,98689.09
2023-09-16T12:20:01.000Z,98689.09
2023-09-16T12:22:27.826Z,98682.38
2023-09-16T12:24:58.141Z,98685.06
2023-09-16T12:27:26.432Z,98689.25
2023-09-16T12:29:53.310Z,98677.44
2023-09-16T12:32:22.819Z,98672.84
2023-09-16T12:35:10.144Z,98674.75
2023-09-16T12:37:37.105Z,98676.19
2023-09-16T12:40:04.499Z,98669.94
2023-09-16T12:42:34.005Z,98671.66
2023-09-16T12:45:03.480Z,98678.44
2023-09-16T12:47:33.389Z,98677.50
2023-09-16T12:50:00.349Z,98668.41
2023-09-16T12:52:27.877Z,98662.91
2023-09-16T12:54:54.650Z,98673.84
2023-09-16T12:57:22.557Z,98669.53
2023-09-16T13:00:04.886Z,98664.94
2023-09-16T13:02:36.773Z,98667.25
2023-09-16T13:05:25.289Z,98668.28
2023-09-16T13:07:53.803Z,98659.09
2023-09-16T13:10:21.369Z,98663.22
2023-09-16T13:12:49.619Z,98656.56
2023-09-16T13:15:19.496Z,98653.66
2023-09-16T13:17:49.192Z,98651.00
2023-09-16T13:20:17.413Z,98650.91
2023-09-16T13:22:48.058Z,98642.91
2023-09-16T13:25:31.852Z,98652.47
2023-09-16T13:28:07.650Z,98647.34
2023-09-16T13:30:38.842Z,98646.00
2023-09-16T13:33:07.796Z,98635.88
2023-09-16T13:35:40.818Z,98639.69
2023-09-16T13:38:10.257Z,98645.25
2023-09-16T13:40:37.160Z,98635.66
2023-09-16T13:43:04.768Z,98633.16
2023-09-16T13:45:32.209Z,98639.44
2023-09-16T13:48:09.562Z,98628.25
2023-09-16T13:50:39.263Z,98629.31
2023-09-16T13:53:05.996Z,98633.00
2023-09-16T13:55:32.952Z,98629.22
2023-09-16T13:57:59.780Z,98622.34
2023-09-16T14:00:27.074Z,98631.16
2023-09-16T14:02:53.853Z,98620.94
2023-09-16T14:05:20.870Z,98624.44
2023-09-16T14:07:47.639Z,98620.41
2023-09-16T14:10:15.180Z,98611.00
2023-09-16T14:12:42.066Z,98612.31
2023-09-16T14:15:09.106Z,98608.97
2023-09-16T14:17:35.877Z,98608.75
2023-09-16T14:20:02.650Z,98607.53
2023-09-16T14:22:30.567Z,98610.25
2023-09-16T14:24:57.560Z,98602.16
2023-09-16T14:27:25.117Z,98611.50
2023-09-16T14:29:52.196Z,98604.34
2023-09-16T14:32:19.612Z,98599.28
2023-09-16T14:34:46.925Z,98605.91
2023-09-16T14:37:13.746Z,98599.47
2023-09-16T14:39:40.500Z,98603.03
2023-09-16T14:42:08.142Z,98595.41
2023-09-16T14:44:35.755Z,98593.59
2023-09-16T14:47:02.787Z,98592.56
2023-09-16T14:49:29.625Z,98587.06
2023-09-16T14:51:57.648Z,98590.75
2023-09-16T14:54:25.134Z,98587.41
2023-09-16T14:56:53.418Z,98582.19
2023-09-16T14:59:20.696Z,98584.06
2023-09-16T15:01:49.526Z,98590.00
2023-09-16T15:04:17.786Z,98587.78
2023-09-16T15:06:44.588Z,98590.25
2023-09-16T15:09:11.328Z,98584.16
2023-09-16T15:11:39.215Z,98583.56
2023-09-16T15:14:06.286Z,98581.19
2023-09-16T15:16:33.115Z,98584.53
2023-09-16T15:19:00.160Z,98579.34
2023-09-16T15:21:27.803Z,98572.75
2023-09-16T15:23:54.896Z,98574.75
2023-09-16T15:26:21.680Z,98572.38
2023-09-16T15:28:49.886Z,98568.66
2023-09-16T15:31:18.862Z,98566.34
2023-09-16T15:33:46.595Z,98564.13
2023-09-16T15:36:13.949Z,98562.00
2023-09-16T15:38:43.426Z,98567.66
2023-09-16T15:41:10.566Z,98563.69
2023-09-16T15:43:37.332Z,98565.13
2023-09-16T15:46:06.052Z,98561.56
2023-09-16T15:48:33.190Z,98563.34
2023-09-16T15:51:00.154Z,98560.91
2023-09-16T15:53:28.237Z,98559.50
2023-09-16T15:55:56.642Z,98559.38
2023-09-16T15:58:24.322Z,98562.59
2023-09-16T16:00:52.656Z,98558.59
2023-09-16T16:03:20.952Z,98564.44
2023-09-16T16:05:49.366Z,98557.72
2023-09-16T16:08:18.270Z,98567.03
2023-09-16T16:10:46.773Z,98569.81
2023-09-16T16:13:13.747Z,98567.38
2023-09-16T16:15:41.171Z,98577.38
2023-09-16T16:18:08.605Z,98567.75
2023-09-16T16:20:39.306Z,98574.28
2023-09-16T16:23:06.050Z,98566.06
2023-09-16T16:25:32.866Z,98571.03
2023-09-16T16:27:59.742Z,98563.91
2023-09-16T16:30:26.714Z,98564.97
2023-09-16T16:32:54.008Z,98561.59
2023-09-16T16:35:21.170Z,98563.06
2023-09-16T16:37:48.902Z,98569.00
2023-09-16T16:40:18.706Z,98560.94
2023-09-16T16:42:47.121Z,98561.41
2023-09-16T16:45:14.391Z,98558.91
2023-09-16T16:47:41.986Z,98551.81
2023-09-16T16:50:09.744Z,98556.06
2023-09-16T16:52:38.265Z,98552.09
2023-09-16T16:55:09.298Z,98547.72
2023-09-16T16:57:36.732Z,98550.03
2023-09-16T17:00:07.423Z,98553.16
2023-09-16T17:02:34.729Z,98555.25
2023-09-16T17:05:01.656Z,98546.88
2023-09-16T17:07:28.568Z,98548.50
2023-09-16T17:09:58.595Z,98554.34
2023-09-16T17:12:25.744Z,98561.38
2023-09-16T17:14:54.113Z,98563.03
2023-09-16T17:17:22.210Z,98549.44
2023-09-16T17:19:49.368Z,98558.97
2023-09-16T17:22:18.879Z,98557.91
2023-09-16T17:24:46.174Z,98563.41
2023-09-16T17:27:13.020Z,98563.56
2023-09-16T17:29:39.869Z,98567.44
2023-09-16T17:32:06.953Z,98570.75
2023-09-16T17:34:34.076Z,98564.84
2023-09-16T17:37:01.223Z,98566.41
2023-09-16T17:39:28.336Z,98564.63
2023-09-16T17:41:55.674Z,98571.28
2023-09-16T17:44:22.769Z,98573.28
2023-09-16T17:46:49.610Z,98576.28
2023-09-16T17:49:17.062Z,98578.84
2023-09-16T17:51:44.210Z,98581.25
2023-09-16T17:54:11.608Z,98594.66
2023-09-16T17:56:38.332Z,98594.53
2023-09-16T17:59:07.059Z,98593.34
2023-09-16T18:01:34.125Z,98591.69
2023-09-16T18:06:28.026Z,98599.38
2023-09-16T18:08:54.814Z,98597.22
2023-09-16T18:11:21.909Z,98600.47
2023-09-16T18:13:48.750Z,98607.81
2023-09-16T18:16:16.813Z,98599.81
2023-09-16T18:18:43.635Z,98618.28
2023-09-16T18:21:11.599Z,98609.00
2023-09-16T18:23:38.321Z,98616.44
2023-09-16T18:26:05.611Z,98619.34
2023-09-16T18:28:32.873Z,98621.09
2023-09-16T18:30:59.921Z,98626.97
2023-09-16T18:33:28.658Z,98627.31
2023-09-16T18:35:55.429Z,98626.56
2023-09-16T18:38:22.535Z,98634.41
2023-09-16T18:40:50.997Z,98636.81
2023-09-16T18:43:18.600Z,98625.91
2023-09-16T18:45:46.324Z,98633.22
2023-09-16T18:48:13.987Z,98632.16
2023-09-16T18:50:43.109Z,98638.81
2023-09-16T18:53:11.077Z,98633.22
2023-09-16T18:55:41.965Z,98634.53
2023-09-16T18:58:08.901Z,98635.94
2023-09-16T19:00:35.543Z,98634.72
2023-09-16T19:03:02.430Z,98636.69
2023-09-16T19:05:29.417Z,98638.94
2023-09-16T19:07:56.180Z,98644.34
2023-09-16T19:10:22.993Z,98641.44
2023-09-16T19:12:49.577Z,98639.56
2023-09-16T19:15:16.415Z,98643.09
2023-09-16T19:17:43.177Z,98643.31
2023-09-16T19:20:10.130Z,98645.72
2023-09-16T19:22:37.030Z,98640.41
2023-09-16T19:25:03.793Z,98639.94
2023-09-16T19:27:30.613Z,98643.38
2023-09-16T19:29:57.436Z,98638.88
2023-09-16T19:32:24.708Z,98649.38
2023-09-16T19:34:52.707Z,98641.00
2023-09-16T19:37:19.634Z,98640.44
2023-09-16T19:39:46.287Z,98646.72
2023-09-16T19:42:13.141Z,98639.66
2023-09-16T19:44:40.172Z,98644.75
2023-09-16T19:47:07.094Z,98639.00
2023-09-16T19:49:33.874Z,98648.50
2023-09-16T19:52:00.645Z,98649.34
2023-09-16T19:54:27.386Z,98649.38
2023-09-16T19:57:03.877Z,98652.41
2023-09-16T19:59:32.107Z,98655.97
2023-09-16T20:02:00.118Z,98658.28
2023-09-16T20:04:28.107Z,98656.13
2023-09-16T20:06:59.328Z,98655.78
2023-09-16T20:09:26.253Z,98667.06
2023-09-16T20:11:52.918Z,98671.59
2023-09-16T20:14:19.636Z,98667.19
2023-09-16T20:16:46.480Z,98664.34
2023-09-16T20:19:19.767Z,98661.44
2023-09-16T20:21:52.566Z,98658.94
2023-09-16T20:24:19.445Z,98654.44
2023-09-16T20:26:46.467Z,98653.47
2023-09-16T20:29:13.287Z,98651.50
2023-09-16T20:31:40.146Z,98652.69
2023-09-16T20:34:12.587Z,98650.97
2023-09-16T20:36:44.083Z,98653.34
2023-09-16T20:39:11.041Z,98658.91
2023-09-16T20:41:37.730Z,98665.63
2023-09-16T20:44:04.642Z,98671.34
2023-09-16T20:46:31.655Z,98661.59
2023-09-16T20:48:58.614Z,98662.28
2023-09-16T20:51:25.467Z,98664.13
2023-09-16T20:53:52.470Z,98654.50
2023-09-16T20:56:19.379Z,98654.50
2023-09-16T20:58:46.147Z,98657.88
2023-09-16T21:01:13.894Z,98657.81
2023-09-16T21:03:41.739Z,98659.25
2023-09-16T21:06:08.726Z,98666.28
2023-09-16T21:08:35.596Z,98661.66
2023-09-16T21:11:03.079Z,98656.13
2023-09-16T21:13:30.293Z,98648.03
2023-09-16T21:15:57.320Z,98661.84
2023-09-16T21:18:24.123Z,98655.47
2023-09-16T21:20:50.850Z,98658.44
2023-09-16T21:23:17.644Z,98656.44
2023-09-16T21:25:44.734Z,98648.31
2023-09-16T21:28:11.570Z,98649.97
2023-09-16T21:30:38.366Z,98654.97
2023-09-16T21:33:05.502Z,98656.03
2023-09-16T21:35:32.530Z,98656.00
2023-09-16T21:37:59.307Z,98651.13
2023-09-16T21:40:26.608Z,98659.41
2023-09-16T21:42:54.268Z,98654.69
2023-09-16T21:45:21.770Z,98650.13
2023-09-16T21:47:48.818Z,98646.47
2023-09-16T21:50:16.131Z,98642.69
2023-09-16T21:52:42.989Z,98638.66
2023-09-16T21:55:09.867Z,98639.13
2023-09-16T21:57:36.638Z,98631.38
2023-09-16T22:00:15.169Z,98638.91
2023-09-16T22:02:42.060Z,98641.75
2023-09-16T22:05:08.967Z,98629.97
2023-09-16T22:07:35.756Z,98627.44
2023-09-16T22:10:02.955Z,98623.38
2023-09-16T22:12:29.721Z,98632.53
2023-09-16T22:14:56.436Z,98628.00
2023-09-16T22:17:23.223Z,98634.72
2023-09-16T22:19:49.954Z,98632.44
2023-09-16T22:22:16.672Z,98629.91
2023-09-16T22:24:43.401Z,98628.84
2023-09-16T22:27:10.134Z,98631.72
2023-09-16T22:29:36.876Z,98631.72
2023-09-16T22:32:04.383Z,98628.66
2023-09-16T22:34:34.249Z,98623.94
2023-09-16T22:37:01.327Z,98620.09
2023-09-16T22:39:27.899Z,98617.59
2023-09-16T22:41:54.641Z,98629.50
2023-09-16T22:44:21.377Z,98625.72
2023-09-16T22:46:48.256Z,98624.19
2023-09-16T22:49:15.050Z,98626.78
2023-09-16T22:51:41.915Z,98621.50
2023-09-16T22:54:08.628Z,98623.25
2023-09-16T22:56:38.509Z,98629.72
2023-09-16T22:59:05.279Z,98637.69
2023-09-16T23:01:32.091Z,98633.63
2023-09-16T23:03:58.887Z,98637.47
2023-09-16T23:06:25.684Z,98630.03
2023-09-16T23:08:52.407Z,98626.94
2023-09-16T23:11:19.144Z,98624.16
2023-09-16T23:13:45.937Z,98636.72
2023-09-16T23:16:12.839Z,98639.75
2023-09-16T23:18:44.015Z,98640.19
2023-09-16T23:21:10.772Z,98636.25
2023-09-16T23:23:37.564Z,98643.00
2023-09-16T23:26:04.333Z,98644.00
2023-09-16T23:28:31.102Z,98641.09
2023-09-16T23:30:57.864Z,98635.72
2023-09-16T23:33:24.664Z,98644.84
2023-09-16T23:35:51.363Z,98647.28
2023-09-16T23:38:18.217Z,98643.84
2023-09-16T23:40:45.059Z,98643.72
2023-09-16T23:43:12.342Z,98654.00
2023-09-16T23:45:39.067Z,98638.91
2023-09-16T23:48:06.989Z,98636.81
2023-09-16T23:50:34.102Z,98636.38
2023-09-16T23:53:00.840Z,98641.53
2023-09-16T23:55:27.849Z,98639.03
2023-09-16T23:57:54.501Z,98634.50
